Time;durP1;ratioP1;P1;durP2;ratioP2;P2;SDS_P1;SDS_P2;PMS_P1;PMS_P2;Temp;Humidity;BMP_temperature;BMP_pressure;BME280_temperature;BME280_humidity;BME280_pressure;Samples;Min_cycle;Max_cycle;Signal;HPM_P1;HPM_P2
2022/06/09 00:01:32;;;;;;;0.90;0.70;;;16.90;74.50;;;;;;5015177;28;20033;-68
2022/06/09 00:04:20;;;;;;;0.88;0.55;;;17.00;74.70;;;;;;5018633;28;20034;-68
2022/06/09 00:06:54;;;;;;;0.95;0.50;;;16.90;74.40;;;;;;5021074;28;20053;-69
2022/06/09 00:09:23;;;;;;;1.00;0.60;;;16.90;74.40;;;;;;5017592;28;20029;-69
2022/06/09 00:11:50;;;;;;;1.00;0.70;;;16.90;74.00;;;;;;5013355;28;20038;-70
2022/06/09 00:14:18;;;;;;;1.63;0.60;;;16.90;74.10;;;;;;5018588;28;20033;-69
2022/06/09 00:16:44;;;;;;;0.70;0.70;;;16.90;74.10;;;;;;5013850;28;20040;-69
2022/06/09 00:19:10;;;;;;;1.20;0.82;;;16.90;74.10;;;;;;5010317;28;20037;-68
2022/06/09 00:21:37;;;;;;;0.88;0.60;;;16.90;74.20;;;;;;5013771;28;20033;-69
2022/06/09 00:24:04;;;;;;;1.40;0.80;;;17.00;74.10;;;;;;5016611;28;20038;-68
2022/06/09 00:26:31;;;;;;;2.47;0.65;;;16.90;74.10;;;;;;5013670;28;20543;-69
2022/06/09 00:28:57;;;;;;;1.90;0.57;;;17.00;74.20;;;;;;5014262;28;20033;-68
2022/06/09 00:31:23;;;;;;;0.60;0.60;;;17.00;74.20;;;;;;5014185;28;20060;-68
2022/06/09 00:33:49;;;;;;;0.60;0.60;;;17.00;74.20;;;;;;5013965;28;20049;-69
2022/06/09 00:36:15;;;;;;;0.93;0.77;;;17.10;74.40;;;;;;5014875;28;20103;-68
2022/06/09 00:38:41;;;;;;;0.95;0.63;;;17.10;74.50;;;;;;5012027;28;20489;-68
2022/06/09 00:41:06;;;;;;;0.70;0.60;;;17.10;74.60;;;;;;5015564;28;20045;-69
2022/06/09 00:43:33;;;;;;;1.40;0.60;;;17.10;74.70;;;;;;5012512;28;20599;-68
2022/06/09 00:46:11;;;;;;;0.90;0.60;;;17.10;74.80;;;;;;5013208;28;20512;-68
2022/06/09 00:48:36;;;;;;;1.00;0.50;;;17.10;75.30;;;;;;5014489;28;20062;-69
2022/06/09 00:51:24;;;;;;;1.15;0.60;;;17.10;74.70;;;;;;5016017;28;20540;-68
2022/06/09 00:53:54;;;;;;;2.25;0.45;;;17.10;75.40;;;;;;5011585;28;20318;-68
2022/06/09 00:56:21;;;;;;;2.13;0.60;;;17.10;74.90;;;;;;5016307;28;20058;-67
2022/06/09 00:58:49;;;;;;;0.93;0.40;;;17.10;75.00;;;;;;5013500;28;20539;-68
2022/06/09 01:01:17;;;;;;;0.40;0.40;;;17.10;75.00;;;;;;5014344;28;20436;-68
2022/06/09 01:03:50;;;;;;;0.40;0.40;;;17.10;74.90;;;;;;5013157;28;20026;-68
2022/06/09 01:06:21;;;;;;;0.47;0.40;;;17.10;75.10;;;;;;5013708;28;20095;-68
2022/06/09 01:09:02;;;;;;;0.77;0.40;;;17.10;75.10;;;;;;5011878;28;22288;-68
2022/06/09 01:11:27;;;;;;;0.80;0.50;;;17.10;75.30;;;;;;5013763;28;20417;-68
2022/06/09 01:13:56;;;;;;;1.90;0.40;;;17.10;75.00;;;;;;5012499;28;20037;-68
2022/06/09 01:16:33;;;;;;;0.40;0.28;;;17.10;75.20;;;;;;5015305;28;20091;-67
2022/06/09 01:19:29;;;;;;;0.30;0.30;;;17.10;75.20;;;;;;5012903;28;20087;-68
2022/06/09 01:22:04;;;;;;;1.02;0.50;;;17.10;75.60;;;;;;5012828;28;20034;-69
2022/06/09 01:24:36;;;;;;;0.60;0.30;;;17.10;75.60;;;;;;5008954;28;20057;-69
2022/06/09 01:27:14;;;;;;;0.55;0.30;;;17.10;75.10;;;;;;5013841;28;20413;-68
2022/06/09 01:29:45;;;;;;;0.22;0.22;;;17.10;75.30;;;;;;5013913;28;20037;-69
2022/06/09 01:32:20;;;;;;;0.47;0.30;;;17.10;75.30;;;;;;5015099;28;20030;-67
2022/06/09 01:35:10;;;;;;;0.38;0.20;;;17.10;75.40;;;;;;5012431;28;20041;-68
2022/06/09 01:37:43;;;;;;;0.45;0.30;;;17.20;75.90;;;;;;5013547;28;20099;-69
2022/06/09 01:40:15;;;;;;;1.00;0.28;;;17.10;75.20;;;;;;5011069;28;20029;-68
2022/06/09 01:42:43;;;;;;;1.70;0.40;;;17.20;75.10;;;;;;5013529;28;20152;-69
2022/06/09 01:45:09;;;;;;;0.40;0.40;;;17.20;75.10;;;;;;5014901;28;20401;-67
2022/06/09 01:47:47;;;;;;;0.45;0.30;;;17.10;74.90;;;;;;5012828;28;20033;-68
2022/06/09 01:50:26;;;;;;;0.75;0.40;;;17.10;75.20;;;;;;5012975;28;20033;-68
2022/06/09 01:52:52;;;;;;;0.60;0.30;;;17.10;75.30;;;;;;5011834;28;20064;-69
2022/06/09 01:55:21;;;;;;;2.08;0.40;;;17.10;75.10;;;;;;5014070;28;20040;-68
2022/06/09 01:57:51;;;;;;;0.60;0.30;;;17.10;75.10;;;;;;5013824;28;20125;-68
2022/06/09 02:00:19;;;;;;;1.40;0.30;;;17.10;75.30;;;;;;5012702;28;20063;-67
2022/06/09 02:03:04;;;;;;;0.63;0.40;;;17.00;75.20;;;;;;5010903;28;20052;-67
2022/06/09 02:05:35;;;;;;;0.30;0.20;;;17.00;75.40;;;;;;5011032;28;20519;-69
2022/06/09 02:08:04;;;;;;;0.50;0.40;;;17.00;75.30;;;;;;5015412;28;20189;-68
2022/06/09 02:10:41;;;;;;;0.88;0.40;;;17.00;75.40;;;;;;5011637;28;20456;-67
2022/06/09 02:13:14;;;;;;;0.47;0.30;;;17.00;75.40;;;;;;5016963;28;20182;-68
2022/06/09 02:15:46;;;;;;;0.73;0.28;;;16.90;75.10;;;;;;5012287;28;20026;-67
2022/06/09 02:18:15;;;;;;;0.63;0.30;;;16.90;75.30;;;;;;5010380;28;20049;-67
2022/06/09 02:20:46;;;;;;;0.95;0.30;;;17.00;75.20;;;;;;5011315;28;20586;-68
2022/06/09 02:23:13;;;;;;;0.40;0.40;;;16.90;75.20;;;;;;5012203;28;20497;-67
2022/06/09 02:25:40;;;;;;;0.47;0.30;;;16.90;75.30;;;;;;5010415;28;20033;-67
2022/06/09 02:28:07;;;;;;;1.48;0.30;;;16.90;75.10;;;;;;5013612;28;20063;-69
2022/06/09 02:30:34;;;;;;;0.68;0.40;;;16.90;75.10;;;;;;5012652;28;20056;-68
2022/06/09 02:32:59;;;;;;;0.50;0.40;;;16.90;75.20;;;;;;5012104;28;20914;-67
2022/06/09 02:35:25;;;;;;;0.75;0.30;;;16.90;75.20;;;;;;5016244;28;20080;-68
2022/06/09 02:37:50;;;;;;;0.43;0.30;;;16.90;75.10;;;;;;5011794;28;20038;-68
2022/06/09 02:40:16;;;;;;;0.70;0.47;;;16.90;75.20;;;;;;5015850;28;20030;-69
2022/06/09 02:42:42;;;;;;;0.30;0.30;;;16.90;75.30;;;;;;5015170;28;20516;-67
2022/06/09 02:45:09;;;;;;;0.55;0.40;;;16.80;75.30;;;;;;5013142;28;20041;-68
2022/06/09 02:47:34;;;;;;;0.50;0.40;;;16.80;75.30;;;;;;5013551;28;20183;-67
2022/06/09 02:50:01;;;;;;;0.90;0.47;;;16.80;75.30;;;;;;5013485;28;20041;-67
2022/06/09 02:52:26;;;;;;;1.55;0.30;;;16.80;75.30;;;;;;5011356;28;20036;-67
2022/06/09 02:54:54;;;;;;;0.30;0.30;;;16.80;75.40;;;;;;5011071;28;20397;-68
2022/06/09 02:57:21;;;;;;;0.93;0.40;;;16.80;75.50;;;;;;5013088;28;20028;-68
2022/06/09 02:59:46;;;;;;;0.55;0.40;;;16.80;75.60;;;;;;5011583;28;20100;-68
2022/06/09 03:02:12;;;;;;;1.85;0.45;;;16.80;75.60;;;;;;5012789;28;20026;-67
2022/06/09 03:04:37;;;;;;;0.50;0.50;;;16.70;75.60;;;;;;5012811;28;20520;-69
2022/06/09 03:07:03;;;;;;;1.90;0.55;;;16.70;75.70;;;;;;5013238;28;20034;-67
2022/06/09 03:09:29;;;;;;;0.98;0.50;;;16.70;75.80;;;;;;5016570;28;20128;-68
2022/06/09 03:11:55;;;;;;;0.60;0.60;;;16.70;75.80;;;;;;5012098;28;20096;-68
2022/06/09 03:14:20;;;;;;;0.68;0.50;;;16.70;75.80;;;;;;5016201;28;20397;-68
2022/06/09 03:16:46;;;;;;;0.60;0.50;;;16.70;75.80;;;;;;5018363;28;20045;-68
2022/06/09 03:19:12;;;;;;;1.63;0.60;;;16.70;75.90;;;;;;5019220;28;20087;-68
2022/06/09 03:21:37;;;;;;;2.45;0.50;;;16.70;76.10;;;;;;5018107;28;20069;-68
2022/06/09 03:24:04;;;;;;;1.65;0.40;;;16.60;76.10;;;;;;5018702;28;20041;-68
2022/06/09 03:26:29;;;;;;;0.82;0.50;;;16.60;76.20;;;;;;5015433;28;20033;-67
2022/06/09 03:28:55;;;;;;;0.60;0.50;;;16.60;76.10;;;;;;5014999;28;20037;-68
2022/06/09 03:31:21;;;;;;;0.98;0.45;;;16.60;76.20;;;;;;5020997;28;20040;-68
2022/06/09 03:33:49;;;;;;;1.05;0.40;;;16.50;76.20;;;;;;5017085;28;20513;-68
2022/06/09 03:36:15;;;;;;;0.57;0.32;;;16.50;76.40;;;;;;5021556;28;20594;-67
2022/06/09 03:38:41;;;;;;;3.80;0.60;;;16.40;76.30;;;;;;5016909;28;20033;-68
2022/06/09 03:41:07;;;;;;;0.25;0.25;;;16.40;76.50;;;;;;5011852;28;20083;-68
2022/06/09 03:43:34;;;;;;;1.95;0.30;;;16.30;76.50;;;;;;5017066;28;20034;-69
2022/06/09 03:46:00;;;;;;;0.75;0.30;;;16.30;76.60;;;;;;5015657;28;20309;-68
2022/06/09 03:48:27;;;;;;;0.95;0.30;;;16.30;76.50;;;;;;5017268;28;20037;-68
2022/06/09 03:50:52;;;;;;;2.05;0.30;;;16.20;76.30;;;;;;5014217;28;20125;-68
2022/06/09 03:53:18;;;;;;;2.55;0.55;;;16.20;76.30;;;;;;5016714;28;20044;-67
2022/06/09 03:55:44;;;;;;;0.55;0.35;;;16.20;76.30;;;;;;5015505;28;20030;-68
2022/06/09 03:58:09;;;;;;;0.52;0.45;;;16.10;76.50;;;;;;5016171;28;20042;-68
2022/06/09 04:00:35;;;;;;;0.30;0.30;;;16.10;76.60;;;;;;5015006;28;20460;-68
2022/06/09 04:03:01;;;;;;;0.30;0.25;;;16.10;76.80;;;;;;5013295;28;20052;-68
2022/06/09 04:05:28;;;;;;;2.78;0.45;;;16.10;76.80;;;;;;5015273;28;20044;-69
2022/06/09 04:07:54;;;;;;;1.13;0.30;;;16.10;76.70;;;;;;5014859;28;20096;-69
2022/06/09 04:10:24;;;;;;;0.30;0.30;;;16.10;76.80;;;;;;5015864;28;20029;-68
2022/06/09 04:12:50;;;;;;;0.68;0.40;;;16.10;77.00;;;;;;5012353;28;20442;-68
2022/06/09 04:15:16;;;;;;;0.65;0.30;;;16.10;76.90;;;;;;5014821;28;20088;-68
2022/06/09 04:17:43;;;;;;;0.80;0.30;;;16.10;77.00;;;;;;5014320;28;20034;-68
2022/06/09 04:20:10;;;;;;;0.85;0.43;;;16.10;77.10;;;;;;5013459;28;20124;-68
2022/06/09 04:22:36;;;;;;;0.65;0.47;;;16.10;77.10;;;;;;5016430;28;20438;-68
2022/06/09 04:25:02;;;;;;;0.57;0.30;;;16.10;77.10;;;;;;5014062;28;20081;-69
2022/06/09 04:27:27;;;;;;;0.45;0.45;;;16.10;77.20;;;;;;5014968;28;20041;-67
2022/06/09 04:29:53;;;;;;;0.43;0.43;;;16.20;77.30;;;;;;5013602;28;20096;-68
2022/06/09 04:32:18;;;;;;;2.05;0.40;;;16.20;77.40;;;;;;5013158;28;20040;-67
2022/06/09 04:34:44;;;;;;;0.40;0.40;;;16.20;77.30;;;;;;5003803;28;20041;-67
2022/06/09 04:37:10;;;;;;;0.57;0.40;;;16.20;77.50;;;;;;5010250;28;20056;-67
2022/06/09 04:39:35;;;;;;;0.40;0.40;;;16.20;77.30;;;;;;5011290;28;20030;-65
2022/06/09 04:42:01;;;;;;;0.88;0.30;;;16.20;77.30;;;;;;5012299;28;20038;-68
2022/06/09 04:44:26;;;;;;;2.10;0.30;;;16.20;77.20;;;;;;5014078;28;20076;-67
2022/06/09 04:46:52;;;;;;;0.77;0.30;;;16.20;77.20;;;;;;5013901;28;20029;-68
2022/06/09 04:49:18;;;;;;;0.20;0.20;;;16.20;77.10;;;;;;5010202;28;20508;-68
2022/06/09 04:51:44;;;;;;;0.80;0.20;;;16.20;77.20;;;;;;5015772;28;20056;-67
2022/06/09 04:54:09;;;;;;;1.23;0.20;;;16.20;77.20;;;;;;5013735;28;20056;-67
2022/06/09 04:56:36;;;;;;;0.88;0.30;;;16.20;77.30;;;;;;5013496;28;20059;-68
2022/06/09 04:59:02;;;;;;;0.20;0.20;;;16.30;77.30;;;;;;5011636;28;20033;-67
2022/06/09 05:01:30;;;;;;;2.47;0.32;;;16.30;77.20;;;;;;5012817;28;20030;-67
2022/06/09 05:03:56;;;;;;;1.33;0.40;;;16.30;77.30;;;;;;5019288;28;20096;-69
2022/06/09 05:06:23;;;;;;;0.75;0.30;;;16.30;77.20;;;;;;5014217;28;20493;-68
2022/06/09 05:08:51;;;;;;;1.55;0.50;;;16.40;77.10;;;;;;5012305;28;20090;-69
2022/06/09 05:11:17;;;;;;;1.33;0.40;;;16.40;76.80;;;;;;5011872;28;20064;-68
2022/06/09 05:13:43;;;;;;;0.80;0.30;;;16.40;77.20;;;;;;5015733;28;20145;-67
2022/06/09 05:16:09;;;;;;;1.27;0.40;;;16.40;76.30;;;;;;5016438;28;20234;-68
2022/06/09 05:18:36;;;;;;;0.60;0.30;;;16.40;76.30;;;;;;5012897;28;20405;-68
2022/06/09 05:21:02;;;;;;;0.45;0.30;;;16.40;76.30;;;;;;5014112;28;20034;-67
2022/06/09 05:23:28;;;;;;;0.63;0.30;;;16.40;76.20;;;;;;5014690;28;20423;-65
2022/06/09 05:25:56;;;;;;;0.85;0.45;;;16.40;76.30;;;;;;5015843;28;20136;-68
2022/06/09 05:28:24;;;;;;;0.73;0.55;;;16.40;76.30;;;;;;5013282;28;20543;-68
2022/06/09 05:30:50;;;;;;;2.08;0.43;;;16.40;76.10;;;;;;5014366;28;20049;-68
2022/06/09 05:33:15;;;;;;;1.05;0.60;;;16.40;76.00;;;;;;5011995;28;20080;-67
2022/06/09 05:35:41;;;;;;;0.85;0.30;;;16.40;76.10;;;;;;5014798;28;20034;-68
2022/06/09 05:46:20;;;;;;;1.27;0.50;;;16.40;75.80;;;;;;5013160;28;20044;-68
2022/06/09 05:48:46;;;;;;;1.55;0.68;;;16.50;75.70;;;;;;5008069;28;20049;-69
2022/06/09 05:51:14;;;;;;;1.85;0.63;;;16.50;75.50;;;;;;5009325;28;20083;-69
2022/06/09 05:53:40;;;;;;;1.60;0.60;;;16.40;75.10;;;;;;5012473;28;20045;-69
2022/06/09 05:56:07;;;;;;;1.48;0.40;;;16.40;74.80;;;;;;5013044;28;20044;-68
2022/06/09 05:58:35;;;;;;;2.10;0.50;;;16.40;75.00;;;;;;5011981;28;20057;-68
2022/06/09 06:01:03;;;;;;;1.55;0.60;;;16.40;75.30;;;;;;5011134;28;20067;-68
2022/06/09 06:03:29;;;;;;;2.15;0.50;;;16.30;75.60;;;;;;5013106;28;20043;-67
2022/06/09 06:08:39;;;;;;;0.90;0.50;;;16.30;75.70;;;;;;5012497;28;20832;-68
2022/06/09 06:11:05;;;;;;;2.70;0.60;;;16.40;75.90;;;;;;5012306;28;20509;-67
2022/06/09 06:13:31;;;;;;;1.50;0.50;;;16.40;76.00;;;;;;5015393;28;20037;-68
2022/06/09 06:15:57;;;;;;;1.58;0.82;;;16.40;76.00;;;;;;5016186;28;20527;-67
2022/06/09 06:18:24;;;;;;;1.02;0.68;;;16.40;75.90;;;;;;5014282;28;20088;-69
2022/06/09 06:20:50;;;;;;;2.15;0.55;;;16.50;75.90;;;;;;5013823;28;20257;-69
2022/06/09 06:23:16;;;;;;;1.20;0.50;;;16.50;76.00;;;;;;5013582;28;20037;-67
2022/06/09 06:25:42;;;;;;;3.83;0.80;;;16.50;76.10;;;;;;5011742;28;20038;-68
2022/06/09 06:28:08;;;;;;;1.20;0.60;;;16.50;76.20;;;;;;5014785;28;20067;-68
2022/06/09 06:30:33;;;;;;;1.80;0.60;;;16.60;76.30;;;;;;5012756;28;20489;-69
2022/06/09 06:32:59;;;;;;;1.70;0.57;;;16.60;76.30;;;;;;5014374;28;20069;-70
2022/06/09 06:35:25;;;;;;;1.58;0.43;;;16.70;76.10;;;;;;5015111;28;20132;-70
2022/06/09 06:37:50;;;;;;;2.25;0.70;;;16.60;75.80;;;;;;5011101;28;20038;-70
2022/06/09 06:40:17;;;;;;;2.13;0.77;;;16.60;75.30;;;;;;5013660;28;20026;-70
2022/06/09 06:42:43;;;;;;;2.63;0.70;;;16.60;75.30;;;;;;5013936;28;20036;-71
2022/06/09 06:45:12;;;;;;;2.83;0.82;;;16.60;75.50;;;;;;5012552;28;20045;-70
2022/06/09 06:47:39;;;;;;;1.52;0.60;;;16.60;75.80;;;;;;5014713;28;20594;-70
2022/06/09 06:50:06;;;;;;;3.50;0.43;;;16.60;75.70;;;;;;5013569;28;20113;-70
2022/06/09 06:52:31;;;;;;;3.00;0.65;;;16.50;75.60;;;;;;5016356;28;20370;-70
2022/06/09 06:54:57;;;;;;;1.17;0.50;;;16.50;75.60;;;;;;5018100;28;20032;-72
2022/06/09 06:57:22;;;;;;;2.42;0.55;;;16.50;75.50;;;;;;5014108;28;20026;-71
2022/06/09 06:59:48;;;;;;;3.33;0.63;;;16.50;75.40;;;;;;5018295;28;20404;-70
2022/06/09 07:02:14;;;;;;;2.25;0.68;;;16.40;75.40;;;;;;5015885;28;20036;-71
2022/06/09 07:04:39;;;;;;;0.60;0.50;;;16.40;75.10;;;;;;5015188;28;20038;-71
2022/06/09 07:07:05;;;;;;;3.35;0.50;;;16.40;74.90;;;;;;5018125;28;20121;-69
2022/06/09 07:09:31;;;;;;;3.47;0.50;;;16.30;75.00;;;;;;5018379;28;20493;-70
2022/06/09 07:11:57;;;;;;;1.48;0.47;;;16.30;76.10;;;;;;5012479;28;20485;-70
2022/06/09 07:14:22;;;;;;;1.35;0.40;;;16.30;75.60;;;;;;5011032;28;20094;-71
2022/06/09 07:16:48;;;;;;;1.17;0.40;;;16.30;75.60;;;;;;5018019;28;20041;-69
2022/06/09 07:19:16;;;;;;;1.83;0.50;;;16.30;75.70;;;;;;5018051;28;20583;-70
2022/06/09 07:21:42;;;;;;;1.15;0.40;;;16.40;75.80;;;;;;5017256;28;20033;-69
2022/06/09 07:24:08;;;;;;;2.15;0.40;;;16.40;75.50;;;;;;5011742;28;20155;-70
2022/06/09 07:26:33;;;;;;;1.17;0.55;;;16.50;75.60;;;;;;5013816;28;20045;-70
2022/06/09 07:28:59;;;;;;;2.08;0.50;;;16.50;75.60;;;;;;5019601;28;20147;-71
2022/06/09 07:31:25;;;;;;;2.35;0.70;;;16.60;75.10;;;;;;5017678;28;20269;-70
2022/06/09 07:33:51;;;;;;;1.10;0.40;;;16.60;74.90;;;;;;5015879;28;20036;-69
2022/06/09 07:36:20;;;;;;;1.08;0.43;;;16.70;74.50;;;;;;5018022;28;20034;-71
2022/06/09 07:38:46;;;;;;;2.40;0.50;;;16.80;75.10;;;;;;5016791;28;20043;-71
2022/06/09 07:41:12;;;;;;;0.70;0.40;;;16.80;73.90;;;;;;5016530;28;20030;-69
2022/06/09 07:43:38;;;;;;;2.28;0.60;;;16.90;74.00;;;;;;5015455;28;20038;-69
2022/06/09 07:46:04;;;;;;;2.35;0.50;;;16.90;73.70;;;;;;5018228;28;20048;-70
2022/06/09 07:48:29;;;;;;;2.45;0.80;;;17.00;73.30;;;;;;5017560;28;20409;-71
2022/06/09 07:50:55;;;;;;;1.27;0.50;;;17.00;73.50;;;;;;5015853;28;20225;-70
2022/06/09 07:53:23;;;;;;;1.10;0.60;;;17.10;72.70;;;;;;5017437;28;20034;-71
2022/06/09 07:55:49;;;;;;;1.83;0.50;;;17.20;73.30;;;;;;5018421;28;20316;-70
2022/06/09 07:58:17;;;;;;;2.17;0.40;;;17.40;72.00;;;;;;5015347;28;20057;-69
2022/06/09 08:00:43;;;;;;;1.50;0.63;;;17.50;72.00;;;;;;5014917;28;20030;-70
2022/06/09 08:03:14;;;;;;;2.80;0.90;;;17.60;71.30;;;;;;5011617;28;20421;-69
2022/06/09 08:05:40;;;;;;;1.75;0.50;;;17.70;70.30;;;;;;5015458;28;20516;-68
2022/06/09 08:08:06;;;;;;;2.55;0.75;;;17.80;70.40;;;;;;5017155;28;20080;-68
2022/06/09 08:10:32;;;;;;;2.25;0.70;;;17.80;69.80;;;;;;5014716;28;20128;-68
2022/06/09 08:13:00;;;;;;;3.05;0.55;;;17.80;69.10;;;;;;5013442;28;20029;-69
2022/06/09 08:15:27;;;;;;;1.23;0.52;;;17.90;69.10;;;;;;5015029;28;20146;-69
2022/06/09 08:17:54;;;;;;;3.05;0.50;;;17.90;68.50;;;;;;5019213;28;20040;-69
2022/06/09 08:20:21;;;;;;;2.25;0.50;;;17.90;68.50;;;;;;5010004;28;20346;-69
2022/06/09 08:22:47;;;;;;;4.93;0.70;;;17.90;68.30;;;;;;5010063;28;20234;-69
2022/06/09 08:25:17;;;;;;;6.10;0.70;;;18.00;68.10;;;;;;5014848;28;20054;-69
2022/06/09 08:27:43;;;;;;;2.67;0.47;;;18.00;68.00;;;;;;5010493;28;20033;-70
2022/06/09 08:30:11;;;;;;;1.67;0.50;;;18.00;67.50;;;;;;5013162;28;20060;-70
2022/06/09 08:32:37;;;;;;;1.60;0.40;;;18.10;67.60;;;;;;5014401;28;20064;-70
2022/06/09 08:35:05;;;;;;;2.58;0.77;;;18.10;65.90;;;;;;5011641;28;20088;-69
2022/06/09 08:37:30;;;;;;;0.85;0.40;;;18.20;64.90;;;;;;5009822;28;20829;-70
2022/06/09 08:39:56;;;;;;;5.65;0.70;;;18.20;67.30;;;;;;5011507;28;20045;-69
2022/06/09 08:42:50;;;;;;;2.05;0.60;;;18.20;65.60;;;;;;5013316;28;20088;-70
2022/06/09 08:45:28;;;;;;;3.25;0.50;;;18.30;63.40;;;;;;5016631;28;20022;-69
2022/06/09 08:47:56;;;;;;;1.40;0.30;;;18.40;64.00;;;;;;5012425;28;20038;-70
2022/06/09 08:50:33;;;;;;;1.90;0.40;;;18.40;64.20;;;;;;5012659;28;20034;-69
2022/06/09 08:53:32;;;;;;;2.38;0.40;;;18.50;63.30;;;;;;5012276;28;20029;-69
2022/06/09 08:56:04;;;;;;;2.33;0.40;;;18.60;63.60;;;;;;5012420;28;20449;-69
2022/06/09 08:58:40;;;;;;;2.53;0.52;;;18.70;63.40;;;;;;5010798;28;20034;-69
2022/06/09 09:01:09;;;;;;;4.65;0.60;;;18.80;63.80;;;;;;5012525;28;20042;-70
2022/06/09 09:03:56;;;;;;;3.78;0.70;;;18.90;62.70;;;;;;5007791;28;20043;-68
2022/06/09 09:06:50;;;;;;;2.58;0.50;;;19.00;61.70;;;;;;5013968;28;20038;-70
2022/06/09 09:09:37;;;;;;;1.73;0.45;;;19.20;61.00;;;;;;5011671;28;20060;-69
2022/06/09 09:12:37;;;;;;;2.22;0.40;;;19.30;60.80;;;;;;5008019;28;20520;-69
2022/06/09 09:15:44;;;;;;;2.45;0.55;;;19.30;61.30;;;;;;5013430;28;20041;-70
2022/06/09 09:18:29;;;;;;;0.75;0.20;;;19.40;62.10;;;;;;5015279;28;20461;-68
2022/06/09 09:21:01;;;;;;;1.40;0.40;;;19.60;58.80;;;;;;5030451;28;20028;-70
2022/06/09 09:23:40;;;;;;;3.25;0.40;;;19.60;59.40;;;;;;5018927;28;20861;-70
2022/06/09 09:26:11;;;;;;;1.70;0.38;;;19.60;57.50;;;;;;5014968;28;20057;-69
2022/06/09 09:29:00;;;;;;;1.23;0.45;;;19.60;57.40;;;;;;5013444;28;20200;-69
2022/06/09 09:31:40;;;;;;;1.90;0.40;;;19.60;56.70;;;;;;5011213;28;20045;-69
2022/06/09 09:34:14;;;;;;;1.88;0.43;;;19.50;56.90;;;;;;5014749;28;20045;-68
2022/06/09 09:36:45;;;;;;;2.13;0.45;;;19.40;56.40;;;;;;5015497;28;20049;-70
2022/06/09 09:39:24;;;;;;;2.25;0.50;;;19.30;57.60;;;;;;5015264;28;20036;-69
2022/06/09 09:42:07;;;;;;;2.10;0.47;;;19.40;58.30;;;;;;5015497;28;20064;-70
2022/06/09 09:44:32;;;;;;;1.95;0.50;;;19.40;58.50;;;;;;5014674;28;20037;-69
2022/06/09 09:47:01;;;;;;;2.08;0.40;;;19.40;58.90;;;;;;5014164;28;20037;-68
2022/06/09 09:49:33;;;;;;;2.15;0.40;;;19.40;57.90;;;;;;5013429;28;20034;-70
2022/06/09 09:52:00;;;;;;;1.98;0.45;;;19.40;56.60;;;;;;5009954;28;20434;-71
2022/06/09 09:54:45;;;;;;;1.20;0.40;;;19.40;56.80;;;;;;5014245;28;20132;-69
2022/06/09 09:57:19;;;;;;;2.83;0.40;;;19.30;55.80;;;;;;5018108;28;20523;-68
2022/06/09 09:59:54;;;;;;;0.75;0.30;;;19.40;57.00;;;;;;5015025;28;20116;-72
2022/06/09 10:08:40;;;;;;;1.48;0.38;;;19.50;56.80;;;;;;5012533;28;20049;-70
2022/06/09 10:14:29;;;;;;;1.10;0.50;;;19.60;56.40;;;;;;5011194;28;19917;-67
2022/06/09 10:16:56;;;;;;;2.45;0.30;;;19.60;57.60;;;;;;5012436;28;20034;-68
2022/06/09 10:19:26;;;;;;;1.42;0.30;;;19.60;56.80;;;;;;5011882;28;20111;-70
2022/06/09 10:21:59;;;;;;;1.95;0.30;;;19.70;56.60;;;;;;5011409;28;20505;-69
2022/06/09 10:24:37;;;;;;;2.72;0.47;;;19.90;56.00;;;;;;5011119;28;20100;-70
2022/06/09 10:27:04;;;;;;;1.63;0.40;;;20.00;55.70;;;;;;5017890;28;20056;-70
2022/06/09 10:29:51;;;;;;;0.85;0.30;;;20.10;55.00;;;;;;5015668;28;20037;-70
2022/06/09 10:32:23;;;;;;;0.80;0.30;;;20.20;54.00;;;;;;5017284;28;20029;-70
2022/06/09 10:35:11;;;;;;;1.00;0.28;;;20.20;53.80;;;;;;5016228;28;20040;-70
2022/06/09 10:37:42;;;;;;;2.17;0.30;;;20.30;53.10;;;;;;5015912;28;20034;-69
2022/06/09 10:40:42;;;;;;;1.77;0.30;;;20.30;54.50;;;;;;5017161;28;20060;-69
2022/06/09 10:43:29;;;;;;;2.13;0.30;;;20.40;53.30;;;;;;5011390;28;20038;-69
2022/06/09 10:46:31;;;;;;;1.00;0.30;;;20.50;52.60;;;;;;5015086;28;20136;-70
2022/06/09 10:55:31;;;;;;;1.02;0.30;;;20.70;52.40;;;;;;5014954;28;20048;-70
2022/06/09 10:58:06;;;;;;;0.75;0.32;;;20.80;51.80;;;;;;5016079;28;20033;-71
2022/06/09 11:00:35;;;;;;;2.13;0.40;;;20.90;52.90;;;;;;5014464;28;20048;-70
2022/06/09 11:03:10;;;;;;;1.23;0.20;;;20.90;51.90;;;;;;5015532;28;20038;-71
2022/06/09 11:05:54;;;;;;;0.47;0.20;;;21.00;51.80;;;;;;5018311;28;20021;-70
2022/06/09 11:09:03;;;;;;;1.77;0.37;;;21.10;51.60;;;;;;5017872;28;20029;-69
2022/06/09 11:11:40;;;;;;;1.58;0.30;;;21.10;49.90;;;;;;5013321;28;20073;-69
2022/06/09 11:14:15;;;;;;;1.98;0.40;;;21.10;51.20;;;;;;5016215;28;20037;-69
2022/06/09 11:16:53;;;;;;;1.85;0.40;;;21.10;51.30;;;;;;5016395;28;20397;-69
2022/06/09 11:19:38;;;;;;;0.98;0.30;;;21.10;51.20;;;;;;5016407;28;20044;-70
2022/06/09 11:22:32;;;;;;;1.42;0.30;;;21.20;50.40;;;;;;5016905;28;20029;-71
2022/06/09 11:25:19;;;;;;;0.93;0.25;;;21.10;51.20;;;;;;5016360;28;20526;-70
2022/06/09 11:28:09;;;;;;;1.25;0.30;;;21.10;52.10;;;;;;5018290;28;20125;-71
2022/06/09 11:31:03;;;;;;;1.90;0.40;;;21.10;50.00;;;;;;5016323;28;20033;-69
2022/06/09 11:33:58;;;;;;;2.97;0.20;;;21.10;49.40;;;;;;5012872;28;20576;-70
2022/06/09 11:36:43;;;;;;;1.00;0.30;;;21.20;49.30;;;;;;5018900;28;20034;-70
2022/06/09 11:39:47;;;;;;;;;;;21.20;50.00;;;;;;5016037;28;20030;-70
2022/06/09 11:42:34;;;;;;;1.38;0.30;;;21.30;47.80;;;;;;5035168;28;19917;-70
2022/06/09 11:45:22;;;;;;;1.20;0.10;;;21.30;49.90;;;;;;5039297;28;20040;-69
2022/06/09 11:47:49;;;;;;;0.82;0.30;;;21.20;48.20;;;;;;5020413;28;20068;-69
2022/06/09 11:50:19;;;;;;;0.50;0.20;;;21.20;49.00;;;;;;5014721;28;20126;-70
2022/06/09 11:52:49;;;;;;;0.50;0.30;;;21.00;49.00;;;;;;5014058;28;20037;-69
2022/06/09 11:55:57;;;;;;;1.67;0.20;;;21.00;49.20;;;;;;5015112;28;20559;-70
2022/06/09 11:58:35;;;;;;;1.95;0.30;;;20.90;49.10;;;;;;5014154;28;20709;-70
2022/06/09 12:01:16;;;;;;;1.25;0.32;;;20.80;49.50;;;;;;5012965;28;20040;-70
2022/06/09 12:03:44;;;;;;;0.65;0.22;;;20.80;50.40;;;;;;5016343;28;20044;-69
2022/06/09 12:06:10;;;;;;;0.57;0.32;;;20.80;50.60;;;;;;5015070;28;20584;-70
2022/06/09 12:08:44;;;;;;;1.00;0.35;;;20.80;50.90;;;;;;5017618;28;20321;-69
2022/06/09 12:11:19;;;;;;;1.33;0.35;;;20.70;51.70;;;;;;5011978;28;20042;-70
2022/06/09 12:14:03;;;;;;;1.10;0.32;;;20.70;51.60;;;;;;5018057;28;20516;-71
2022/06/09 12:16:53;;;;;;;1.15;0.20;;;20.70;51.80;;;;;;5014916;28;20038;-70
2022/06/09 12:19:24;;;;;;;2.92;0.30;;;20.70;52.40;;;;;;5015627;28;21676;-70
2022/06/09 12:21:59;;;;;;;1.23;0.22;;;20.80;53.00;;;;;;5016644;28;20520;-69
2022/06/09 12:25:19;;;;;;;1.58;0.22;;;20.90;53.70;;;;;;5012127;28;20068;-69
2022/06/09 12:27:48;;;;;;;1.40;0.40;;;21.00;52.50;;;;;;5013886;28;20036;-69
2022/06/09 12:30:33;;;;;;;1.75;0.25;;;21.10;53.30;;;;;;5014797;28;20197;-70
2022/06/09 12:33:25;;;;;;;2.60;0.55;;;21.10;53.00;;;;;;5013937;28;20040;-67
2022/06/09 12:36:12;;;;;;;1.42;0.40;;;21.20;52.30;;;;;;5014958;28;20524;-66
2022/06/09 12:38:51;;;;;;;1.13;0.30;;;21.20;51.60;;;;;;5011580;28;20026;-67
2022/06/09 12:41:24;;;;;;;2.80;0.40;;;21.20;52.50;;;;;;5009079;28;20531;-67
2022/06/09 12:44:17;;;;;;;1.55;0.40;;;21.30;52.00;;;;;;5009358;28;20489;-66
2022/06/09 12:46:43;;;;;;;2.25;0.55;;;21.30;52.50;;;;;;5012177;28;20026;-67
2022/06/09 12:49:26;;;;;;;1.40;0.47;;;21.30;52.60;;;;;;5013482;28;20052;-67
2022/06/09 12:51:52;;;;;;;2.00;0.43;;;21.30;52.40;;;;;;5016177;28;20040;-67
2022/06/09 12:54:38;;;;;;;1.48;0.30;;;21.30;53.00;;;;;;5011790;28;20215;-67
2022/06/09 12:57:20;;;;;;;2.85;0.65;;;21.20;53.60;;;;;;5015461;28;20061;-67
2022/06/09 13:00:07;;;;;;;0.93;0.50;;;21.10;53.80;;;;;;5014470;28;20030;-67
2022/06/09 13:02:40;;;;;;;2.60;0.50;;;21.00;55.10;;;;;;5014549;28;20030;-67
2022/06/09 13:05:20;;;;;;;1.27;0.47;;;20.90;54.00;;;;;;5014138;28;20038;-66
2022/06/09 13:07:59;;;;;;;2.20;0.50;;;20.70;54.20;;;;;;5014777;28;20092;-66
2022/06/09 13:10:30;;;;;;;2.22;0.40;;;20.60;54.30;;;;;;5010482;28;20537;-66
2022/06/09 13:13:35;;;;;;;2.05;0.50;;;20.60;54.10;;;;;;5012629;28;20545;-66
2022/06/09 13:16:04;;;;;;;0.93;0.43;;;20.60;54.00;;;;;;5013366;28;20176;-67
2022/06/09 13:18:46;;;;;;;3.65;0.57;;;20.70;52.40;;;;;;5014972;28;20068;-67
2022/06/09 13:21:15;;;;;;;16.23;2.28;;;20.80;51.90;;;;;;5011492;28;20042;-67
2022/06/09 13:23:44;;;;;;;2.25;0.30;;;20.80;52.30;;;;;;5014382;28;20033;-67
2022/06/09 13:26:14;;;;;;;2.15;0.40;;;20.90;51.90;;;;;;5012598;28;20038;-67
2022/06/09 13:28:45;;;;;;;2.63;0.40;;;21.00;51.00;;;;;;5025025;28;20041;-66
2022/06/09 13:31:30;;;;;;;1.67;0.47;;;21.20;50.40;;;;;;5012151;28;20037;-67
2022/06/09 13:34:24;;;;;;;2.58;0.30;;;21.30;49.00;;;;;;5013994;28;20037;-66
2022/06/09 13:36:56;;;;;;;1.88;0.25;;;21.30;47.50;;;;;;5006080;28;20034;-67
2022/06/09 13:39:33;;;;;;;0.88;0.40;;;21.40;48.00;;;;;;5017717;28;20026;-67